createdAt,value
2019-02-12T00:02:09.461Z,9.70
2019-02-12T00:04:40.028Z,10.77
2019-02-12T00:07:10.532Z,10.23
2019-02-12T00:09:41.087Z,12.73
2019-02-12T00:12:11.545Z,12.90
2019-02-12T00:14:42.085Z,11.77
2019-02-12T00:17:12.581Z,11.27
2019-02-12T00:19:43.198Z,10.53
2019-02-12T00:22:13.694Z,12.10
2019-02-12T00:24:44.184Z,11.87
2019-02-12T00:27:14.786Z,11.63
2019-02-12T00:29:45.318Z,12.90
2019-02-12T00:32:15.866Z,10.67
2019-02-12T00:34:48.024Z,10.50
2019-02-12T00:37:18.707Z,11.27
2019-02-12T00:39:49.284Z,9.67
2019-02-12T00:42:19.848Z,9.53
2019-02-12T00:44:50.406Z,11.43
2019-02-12T00:47:21.407Z,12.90
2019-02-12T00:49:51.967Z,11.10
2019-02-12T00:52:22.533Z,9.87
2019-02-12T00:54:53.069Z,9.53
2019-02-12T00:57:23.549Z,9.93
2019-02-12T00:59:54.123Z,9.30
2019-02-12T01:02:24.831Z,9.97
2019-02-12T01:04:55.465Z,9.43
2019-02-12T01:07:26.036Z,9.37
2019-02-12T01:09:56.633Z,10.57
2019-02-12T01:12:27.092Z,10.57
2019-02-12T01:14:57.577Z,8.83
2019-02-12T01:17:28.991Z,8.97
2019-02-12T01:19:59.487Z,10.27
2019-02-12T01:22:29.952Z,10.33
2019-02-12T01:25:00.380Z,10.67
2019-02-12T01:27:31.059Z,8.50
2019-02-12T01:30:01.515Z,7.67
2019-02-12T01:32:32.309Z,8.13
2019-02-12T01:35:21.766Z,7.13
2019-02-12T01:37:52.305Z,7.97
2019-02-12T01:40:22.899Z,7.60
2019-02-12T01:42:53.339Z,7.73
2019-02-12T01:45:23.807Z,6.60
2019-02-12T01:47:54.231Z,7.13
2019-02-12T01:50:24.746Z,6.57
2019-02-12T01:52:55.177Z,6.40
2019-02-12T01:55:25.676Z,7.93
2019-02-12T01:57:56.124Z,6.00
2019-02-12T02:00:26.612Z,5.40
2019-02-12T02:02:57.312Z,4.83
2019-02-12T02:05:27.742Z,5.53
2019-02-12T02:07:58.175Z,5.17
2019-02-12T02:10:28.826Z,5.60
2019-02-12T02:12:59.363Z,4.10
2019-02-12T02:15:30.259Z,4.00
2019-02-12T02:18:00.706Z,4.43
2019-02-12T02:20:31.540Z,5.13
2019-02-12T02:23:02.022Z,3.03
2019-02-12T02:25:32.636Z,3.40
2019-02-12T02:28:04.169Z,2.40
2019-02-12T02:30:34.571Z,3.00
2019-02-12T02:33:05.107Z,3.23
2019-02-12T02:35:35.596Z,3.10
2019-02-12T02:38:06.060Z,2.17
2019-02-12T02:40:36.474Z,4.33
2019-02-12T02:43:07.052Z,2.83
2019-02-12T02:45:37.539Z,2.63
2019-02-12T02:48:08.058Z,2.27
2019-02-12T02:50:38.634Z,3.33
2019-02-12T02:53:09.040Z,2.43
2019-02-12T02:55:39.444Z,3.20
2019-02-12T02:58:09.879Z,3.10
2019-02-12T03:00:40.294Z,3.33
2019-02-12T03:03:11.006Z,6.37
2019-02-12T03:05:41.511Z,2.30
2019-02-12T03:08:12.001Z,1.93
2019-02-12T03:10:42.566Z,5.37
2019-02-12T03:13:13.129Z,3.43
2019-02-12T03:15:43.580Z,2.97
2019-02-12T03:18:14.265Z,1.83
2019-02-12T03:20:45.022Z,4.23
2019-02-12T03:23:15.464Z,2.93
2019-02-12T03:25:45.896Z,2.50
2019-02-12T03:28:16.466Z,1.90
2019-02-12T03:30:46.913Z,3.63
2019-02-12T03:33:17.365Z,2.00
2019-02-12T03:35:48.200Z,2.80
2019-02-12T03:38:18.738Z,3.70
2019-02-12T03:40:49.240Z,2.10
2019-02-12T03:43:19.752Z,1.90
2019-02-12T03:45:50.275Z,4.17
2019-02-12T03:48:44.631Z,2.07
2019-02-12T03:51:15.129Z,1.37
2019-02-12T03:53:45.611Z,1.33
2019-02-12T03:56:16.089Z,1.40
2019-02-12T03:58:46.605Z,1.87
2019-02-12T04:01:17.095Z,2.10
2019-02-12T04:03:48.019Z,5.77
2019-02-12T04:06:18.581Z,2.10
2019-02-12T04:08:49.031Z,2.10
2019-02-12T04:11:19.611Z,2.33
2019-02-12T04:13:50.401Z,1.70
2019-02-12T04:16:20.880Z,3.07
2019-02-12T04:18:51.341Z,2.00
2019-02-12T04:21:21.887Z,1.80
2019-02-12T04:23:52.289Z,3.20
2019-02-12T04:26:22.803Z,1.13
2019-02-12T04:28:53.249Z,3.73
2019-02-12T04:31:23.783Z,2.53
2019-02-12T04:33:54.272Z,4.03
2019-02-12T04:36:24.776Z,2.53
2019-02-12T04:38:55.234Z,2.47
2019-02-12T04:41:25.693Z,3.53
2019-02-12T04:43:56.266Z,5.00
2019-02-12T04:46:26.778Z,2.07
2019-02-12T04:48:57.328Z,3.53
2019-02-12T04:51:28.708Z,3.07
2019-02-12T04:53:59.275Z,2.10
2019-02-12T04:56:29.781Z,3.03
2019-02-12T04:59:00.318Z,1.50
2019-02-12T05:01:30.808Z,2.90
2019-02-12T05:04:01.288Z,3.63
2019-02-12T05:06:32.242Z,2.53
2019-02-12T05:09:22.322Z,2.30
2019-02-12T05:12:11.047Z,6.27
2019-02-12T05:14:41.506Z,3.97
2019-02-12T05:17:11.954Z,3.60
2019-02-12T05:19:42.434Z,2.77
2019-02-12T05:22:12.867Z,5.30
2019-02-12T05:24:43.435Z,2.47
2019-02-12T05:27:14.049Z,2.97
2019-02-12T05:29:44.726Z,3.43
2019-02-12T05:32:15.276Z,4.13
2019-02-12T05:34:45.805Z,3.77
2019-02-12T05:37:16.428Z,4.77
2019-02-12T05:39:46.945Z,3.70
2019-02-12T05:42:17.595Z,2.43
2019-02-12T05:44:48.182Z,4.27
2019-02-12T05:47:18.691Z,2.43
2019-02-12T05:49:49.271Z,4.37
2019-02-12T05:52:19.802Z,6.57
2019-02-12T05:54:50.548Z,3.70
2019-02-12T05:57:21.103Z,6.07
2019-02-12T05:59:51.597Z,7.03
2019-02-12T06:02:22.181Z,4.33
2019-02-12T06:04:53.024Z,6.47
2019-02-12T06:07:23.709Z,5.90
2019-02-12T06:09:54.202Z,5.53
2019-02-12T06:12:24.873Z,9.47
2019-02-12T06:14:56.538Z,6.33
2019-02-12T06:17:29.470Z,5.87
2019-02-12T06:19:59.945Z,7.47
2019-02-12T06:22:30.760Z,5.97
2019-02-12T06:25:01.200Z,7.00
2019-02-12T06:27:31.764Z,6.63
2019-02-12T06:30:02.276Z,4.83
2019-02-12T06:32:34.280Z,5.83
2019-02-12T06:35:04.788Z,14.43
2019-02-12T06:37:35.320Z,13.73
2019-02-12T06:40:06.747Z,9.13
2019-02-12T06:42:37.276Z,9.67
2019-02-12T06:45:09.232Z,7.07
2019-02-12T06:47:39.694Z,10.20
2019-02-12T06:50:10.587Z,8.93
2019-02-12T06:52:41.315Z,9.27
2019-02-12T06:55:11.820Z,11.30
2019-02-12T06:57:42.319Z,10.00
2019-02-12T07:00:13.066Z,5.00
2019-02-12T07:03:18.023Z,8.63
2019-02-12T07:05:55.701Z,4.77
2019-02-12T07:08:52.915Z,5.97
2019-02-12T07:11:56.147Z,11.73
2019-02-12T07:14:46.805Z,9.93
2019-02-12T07:18:01.040Z,5.20
2019-02-12T07:21:06.409Z,7.23
2019-02-12T07:24:14.371Z,12.70
2019-02-12T07:26:57.514Z,8.90
2019-02-12T07:29:54.408Z,9.83
2019-02-12T07:32:41.908Z,10.77
2019-02-12T07:35:53.410Z,5.93
2019-02-12T07:39:07.108Z,7.77
2019-02-12T07:42:18.017Z,15.20
2019-02-12T07:45:25.927Z,10.17
2019-02-12T07:48:05.248Z,7.53
2019-02-12T07:50:59.244Z,8.23
2019-02-12T07:54:01.546Z,9.97
2019-02-12T07:57:17.025Z,7.77
2019-02-12T08:00:15.662Z,7.20
2019-02-12T08:03:39.412Z,9.20
2019-02-12T08:06:18.286Z,10.67
2019-02-12T08:09:42.123Z,7.30
2019-02-12T08:13:01.392Z,11.87
2019-02-12T08:15:41.834Z,5.37
2019-02-12T08:18:34.422Z,10.93
2019-02-12T08:21:29.728Z,8.23
2019-02-12T08:24:41.511Z,7.43
2019-02-12T08:27:51.946Z,11.90
2019-02-12T08:30:29.536Z,8.67
2019-02-12T08:33:44.116Z,11.03
2019-02-12T08:36:27.275Z,10.80
2019-02-12T08:39:18.719Z,8.43
2019-02-12T08:42:36.847Z,6.23
2019-02-12T08:46:02.047Z,11.60
2019-02-12T08:49:07.767Z,5.20
2019-02-12T08:52:08.329Z,12.63
2019-02-12T08:55:32.113Z,10.13
2019-02-12T08:58:36.519Z,6.57
2019-02-12T09:01:52.962Z,9.73
2019-02-12T09:05:12.659Z,5.97
2019-02-12T09:07:52.199Z,14.60
2019-02-12T09:11:01.672Z,5.37
2019-02-12T09:13:58.567Z,5.77
2019-02-12T09:17:00.710Z,7.40
2019-02-12T09:20:02.103Z,4.53
2019-02-12T09:22:49.458Z,9.23
2019-02-12T09:25:35.552Z,5.10
2019-02-12T09:29:02.340Z,9.37
2019-02-12T09:32:03.323Z,3.83
2019-02-12T09:35:13.500Z,5.63
2019-02-12T09:38:37.020Z,8.57
2019-02-12T09:41:18.792Z,4.70
2019-02-12T09:44:14.462Z,8.70
2019-02-12T09:47:18.514Z,15.67
2019-02-12T09:50:21.990Z,13.13
2019-02-12T09:53:23.487Z,8.80
2019-02-12T09:56:10.490Z,12.63
2019-02-12T09:59:17.485Z,13.63
2019-02-12T10:02:01.934Z,6.50
2019-02-12T10:05:07.459Z,7.77
2019-02-12T10:07:56.484Z,9.70
2019-02-12T10:11:01.446Z,7.00
2019-02-12T10:13:42.565Z,10.30
2019-02-12T10:16:59.889Z,7.77
2019-02-12T10:19:42.656Z,9.57
2019-02-12T10:22:52.245Z,6.43
2019-02-12T10:25:59.618Z,8.00
2019-02-12T10:29:18.907Z,5.40
2019-02-12T10:31:47.730Z,4.80
2019-02-12T10:34:18.150Z,6.57
2019-02-12T10:36:48.630Z,8.03
2019-02-12T10:39:19.106Z,5.57
2019-02-12T10:41:49.607Z,10.77
2019-02-12T10:44:20.211Z,9.27
2019-02-12T10:46:50.721Z,9.20
2019-02-12T10:49:21.204Z,6.10
2019-02-12T10:51:51.645Z,12.50
2019-02-12T10:54:28.033Z,6.97
2019-02-12T10:56:57.531Z,3.53
2019-02-12T10:59:28.017Z,4.33
2019-02-12T11:01:58.486Z,5.07
2019-02-12T11:04:29.229Z,7.27
2019-02-12T11:06:59.716Z,3.07
2019-02-12T11:09:30.204Z,15.07
2019-02-12T11:12:00.773Z,10.43
2019-02-12T11:14:31.290Z,16.17
2019-02-12T11:17:01.828Z,9.83
2019-02-12T11:19:32.305Z,9.30
2019-02-12T11:22:02.770Z,6.07
2019-02-12T11:24:35.658Z,20.27
2019-02-12T11:27:05.499Z,6.17
2019-02-12T11:29:35.897Z,4.50
2019-02-12T11:32:06.373Z,11.97
2019-02-12T11:34:36.781Z,14.23
2019-02-12T11:37:07.214Z,12.67
2019-02-12T11:39:37.617Z,8.93
2019-02-12T11:42:08.117Z,9.77
2019-02-12T11:44:38.551Z,9.23
2019-02-12T11:47:09.013Z,13.93
2019-02-12T11:49:39.505Z,20.43
2019-02-12T11:52:10.045Z,14.03
2019-02-12T11:54:43.811Z,10.30
2019-02-12T11:57:12.747Z,6.90
2019-02-12T11:59:43.193Z,11.10
2019-02-12T12:02:13.765Z,10.83
2019-02-12T12:04:44.132Z,11.47
2019-02-12T12:07:14.820Z,6.57
2019-02-12T12:09:45.230Z,7.67
2019-02-12T12:12:15.770Z,5.57
2019-02-12T12:14:46.360Z,10.17
2019-02-12T12:17:16.956Z,12.63
2019-02-12T12:19:47.399Z,8.77
2019-02-12T12:22:17.969Z,10.17
2019-02-12T12:24:51.564Z,11.20
2019-02-12T12:27:20.602Z,7.60
2019-02-12T12:29:51.094Z,9.13
2019-02-12T12:32:21.580Z,17.90
2019-02-12T12:34:52.013Z,15.40
2019-02-12T12:37:22.473Z,7.63
2019-02-12T12:39:52.998Z,16.53
2019-02-12T12:42:23.798Z,6.30
2019-02-12T12:44:54.263Z,10.03
2019-02-12T12:47:24.720Z,7.50
2019-02-12T12:49:55.188Z,7.10
2019-02-12T12:52:25.706Z,6.67
2019-02-12T12:54:59.942Z,8.60
2019-02-12T12:57:29.175Z,9.10
2019-02-12T12:59:59.625Z,7.23
2019-02-12T13:02:30.202Z,7.27
2019-02-12T13:05:02.731Z,8.60
2019-02-12T13:07:41.179Z,5.70
2019-02-12T13:10:13.637Z,5.47
2019-02-12T13:12:44.099Z,9.77
2019-02-12T13:15:14.505Z,9.30
2019-02-12T13:17:46.207Z,6.57
2019-02-12T13:20:16.695Z,8.03
2019-02-12T13:22:47.342Z,6.70
2019-02-12T13:25:17.769Z,6.90
2019-02-12T13:27:48.248Z,7.17
2019-02-12T13:30:18.680Z,19.17
2019-02-12T13:32:49.281Z,9.77
2019-02-12T13:35:20.805Z,10.40
2019-02-12T13:37:51.347Z,12.47
2019-02-12T13:40:21.818Z,6.50
2019-02-12T13:42:52.274Z,7.30
2019-02-12T13:45:22.726Z,6.77
2019-02-12T13:47:53.274Z,7.67
2019-02-12T13:50:23.773Z,11.47
2019-02-12T13:52:54.314Z,15.73
2019-02-12T13:55:24.857Z,24.33
2019-02-12T13:57:55.338Z,10.03
2019-02-12T14:00:25.824Z,7.93
2019-02-12T14:02:56.249Z,21.67
2019-02-12T14:05:26.797Z,11.23
2019-02-12T14:07:57.216Z,13.40
2019-02-12T14:10:27.674Z,5.93
2019-02-12T14:12:58.050Z,9.27
2019-02-12T14:15:29.076Z,9.07
2019-02-12T14:17:59.568Z,9.30
2019-02-12T14:20:30.279Z,10.07
2019-02-12T14:23:00.704Z,9.37
2019-02-12T14:25:31.236Z,10.20
2019-02-12T14:28:01.606Z,9.13
2019-02-12T14:30:32.108Z,9.30
2019-02-12T14:33:02.491Z,11.17
2019-02-12T14:35:32.945Z,11.27
2019-02-12T14:38:03.388Z,19.97
2019-02-12T14:40:33.865Z,6.03
2019-02-12T14:43:04.274Z,12.97
2019-02-12T14:45:34.703Z,5.17
2019-02-12T14:48:05.190Z,5.20
2019-02-12T14:50:35.803Z,7.53
2019-02-12T14:53:06.277Z,9.77
2019-02-12T14:55:36.781Z,9.30
2019-02-12T14:58:07.231Z,12.43
2019-02-12T15:00:37.990Z,5.23
2019-02-12T15:03:08.519Z,11.47
2019-02-12T15:05:39.011Z,8.00
2019-02-12T15:08:09.431Z,5.40
2019-02-12T15:10:39.827Z,5.60
2019-02-12T15:13:10.281Z,6.20
2019-02-12T15:15:40.783Z,4.33
2019-02-12T15:18:11.266Z,9.03
2019-02-12T15:20:41.729Z,9.97
2019-02-12T15:23:12.230Z,14.03
2019-02-12T15:25:42.773Z,14.77
2019-02-12T15:28:13.323Z,5.63
2019-02-12T15:30:43.860Z,4.57
2019-02-12T15:33:14.341Z,5.20
2019-02-12T15:35:44.858Z,5.13
2019-02-12T15:38:15.394Z,3.63
2019-02-12T15:40:45.892Z,9.33
2019-02-12T15:43:16.381Z,5.93
2019-02-12T15:45:46.896Z,6.93
2019-02-12T15:48:17.555Z,5.77
2019-02-12T15:50:47.978Z,7.97
2019-02-12T15:53:18.942Z,8.80
2019-02-12T15:55:51.401Z,5.43
2019-02-12T15:58:21.740Z,7.87
2019-02-12T16:00:52.246Z,6.13
2019-02-12T16:03:22.746Z,8.47
2019-02-12T16:05:54.656Z,7.63
2019-02-12T16:08:25.381Z,6.60
2019-02-12T16:10:57.036Z,6.30
2019-02-12T16:13:28.097Z,7.17
2019-02-12T16:15:58.600Z,3.93
2019-02-12T16:18:29.108Z,7.67
2019-02-12T16:20:59.633Z,8.77
2019-02-12T16:23:31.215Z,7.00
2019-02-12T16:26:02.120Z,7.87
2019-02-12T16:28:32.589Z,7.77
2019-02-12T16:31:03.143Z,7.20
2019-02-12T16:33:33.597Z,4.87
2019-02-12T16:36:04.133Z,6.37
2019-02-12T16:38:34.619Z,5.63
2019-02-12T16:41:05.235Z,7.27
2019-02-12T16:43:36.325Z,5.87
2019-02-12T16:46:11.553Z,7.17
2019-02-12T16:48:42.017Z,9.83
2019-02-12T16:51:12.568Z,6.47
2019-02-12T16:53:43.285Z,9.27
2019-02-12T16:56:14.800Z,6.00
2019-02-12T16:58:45.503Z,5.20
2019-02-12T17:01:16.215Z,7.23
2019-02-12T17:03:46.675Z,8.57
2019-02-12T17:06:17.160Z,7.03
2019-02-12T17:08:47.836Z,7.90
2019-02-12T17:11:18.282Z,10.73
2019-02-12T17:13:48.808Z,6.90
2019-02-12T17:16:19.454Z,9.43
2019-02-12T17:18:50.048Z,7.10
2019-02-12T17:21:21.714Z,6.77
2019-02-12T17:23:52.157Z,7.50
2019-02-12T17:26:23.614Z,5.53
2019-02-12T17:28:54.096Z,10.03
2019-02-12T17:31:24.623Z,5.03
2019-02-12T17:33:56.240Z,5.47
2019-02-12T17:36:26.677Z,8.83
2019-02-12T17:38:57.188Z,7.37
2019-02-12T17:41:27.876Z,8.27
2019-02-12T17:43:58.482Z,6.43
2019-02-12T17:46:29.960Z,5.67
2019-02-12T17:49:00.430Z,5.97
2019-02-12T17:51:31.302Z,7.53
2019-02-12T17:54:01.753Z,7.20
2019-02-12T17:56:32.214Z,11.07
2019-02-12T17:59:03.910Z,11.10
2019-02-12T18:01:34.398Z,9.90
2019-02-12T18:04:04.813Z,8.17
2019-02-12T18:06:35.339Z,5.43
2019-02-12T18:09:08.582Z,3.97
2019-02-12T18:11:40.995Z,6.23
2019-02-12T18:14:20.883Z,6.40
2019-02-12T18:16:51.370Z,6.47
2019-02-12T18:19:21.819Z,8.80
2019-02-12T18:21:52.262Z,8.53
2019-02-12T18:24:24.703Z,8.10
2019-02-12T18:26:55.209Z,10.23
2019-02-12T18:29:25.763Z,5.80
2019-02-12T18:31:56.517Z,10.27
2019-02-12T18:34:38.773Z,8.33
2019-02-12T18:37:09.245Z,9.13
2019-02-12T18:39:39.733Z,8.07
2019-02-12T18:42:10.627Z,6.70
2019-02-12T18:44:41.386Z,5.90
2019-02-12T18:47:11.898Z,8.90
2019-02-12T18:49:42.423Z,10.73
2019-02-12T18:52:13.005Z,7.27
2019-02-12T18:54:43.482Z,9.97
2019-02-12T18:57:14.086Z,8.00
2019-02-12T18:59:44.642Z,12.90
2019-02-12T19:02:15.166Z,8.57
2019-02-12T19:04:45.756Z,9.47
2019-02-12T19:07:17.217Z,8.00
2019-02-12T19:09:47.834Z,11.43
2019-02-12T19:12:18.387Z,9.53
2019-02-12T19:14:49.365Z,12.23
2019-02-12T19:17:19.901Z,10.77
2019-02-12T19:19:51.970Z,13.17
2019-02-12T19:22:22.808Z,11.50
2019-02-12T19:24:53.371Z,14.17
2019-02-12T19:27:24.145Z,14.90
2019-02-12T19:29:55.512Z,15.20
2019-02-12T19:32:26.321Z,16.17
2019-02-12T19:34:56.873Z,15.63
2019-02-12T19:37:27.628Z,16.33
2019-02-12T19:39:58.298Z,15.43
2019-02-12T19:42:28.793Z,17.53
2019-02-12T19:45:00.536Z,17.63
2019-02-12T19:47:31.083Z,17.90
2019-02-12T19:50:01.745Z,20.20
2019-02-12T19:52:32.637Z,17.97
2019-02-12T19:55:03.200Z,19.20
2019-02-12T19:57:34.026Z,16.50
2019-02-12T20:00:05.341Z,19.23
2019-02-12T20:02:36.119Z,19.97
2019-02-12T20:05:07.349Z,25.10
2019-02-12T20:07:37.941Z,27.73
2019-02-12T20:10:09.065Z,24.43
2019-02-12T20:12:39.772Z,24.60
2019-02-12T20:15:11.286Z,26.93
2019-02-12T20:17:42.747Z,24.93
2019-02-12T20:20:14.941Z,21.90
2019-02-12T20:22:45.454Z,25.33
2019-02-12T20:25:16.321Z,24.10
2019-02-12T20:27:47.122Z,26.10
2019-02-12T20:30:17.628Z,26.13
2019-02-12T20:32:48.072Z,24.90
2019-02-12T20:35:19.592Z,27.17
2019-02-12T20:37:50.336Z,28.93
2019-02-12T20:40:20.992Z,23.93
2019-02-12T20:42:51.551Z,25.17
2019-02-12T20:45:22.167Z,22.10
2019-02-12T20:47:52.833Z,22.27
2019-02-12T20:50:23.490Z,22.60
2019-02-12T20:52:54.502Z,27.43
2019-02-12T20:55:25.058Z,27.13
2019-02-12T20:57:55.762Z,22.83
2019-02-12T21:00:27.251Z,28.30
2019-02-12T21:02:57.741Z,24.80
2019-02-12T21:05:28.170Z,22.10
2019-02-12T21:07:58.763Z,22.23
2019-02-12T21:10:29.387Z,21.30
2019-02-12T21:13:01.726Z,22.83
2019-02-12T21:15:32.387Z,20.40
2019-02-12T21:18:02.958Z,19.67
2019-02-12T21:20:33.475Z,19.70
2019-02-12T21:23:04.105Z,21.37
2019-02-12T21:25:34.649Z,22.33
2019-02-12T21:28:05.108Z,25.40
2019-02-12T21:30:35.881Z,22.97
2019-02-12T21:33:06.281Z,25.03
2019-02-12T21:35:37.151Z,26.60
2019-02-12T21:38:09.687Z,25.23
2019-02-12T21:40:40.191Z,25.47
2019-02-12T21:43:10.685Z,23.27
2019-02-12T21:45:44.926Z,27.27
2019-02-12T21:48:15.412Z,24.30
2019-02-12T21:50:46.318Z,25.73
2019-02-12T21:53:16.826Z,26.53
2019-02-12T21:55:47.398Z,22.37
2019-02-12T21:58:17.902Z,23.87
2019-02-12T22:00:48.303Z,21.93
2019-02-12T22:03:18.724Z,20.80
2019-02-12T22:05:49.312Z,21.60
2019-02-12T22:08:19.922Z,18.63
2019-02-12T22:10:50.576Z,18.83
2019-02-12T22:13:21.354Z,16.90
2019-02-12T22:15:51.804Z,14.47
2019-02-12T22:18:22.534Z,20.27
2019-02-12T22:20:53.072Z,16.60
2019-02-12T22:23:23.684Z,17.73
2019-02-12T22:25:54.162Z,21.10
2019-02-12T22:28:24.720Z,19.10
2019-02-12T22:30:56.207Z,18.10
2019-02-12T22:33:26.705Z,20.17
2019-02-12T22:35:57.233Z,19.47
2019-02-12T22:38:27.789Z,19.23
2019-02-12T22:40:58.275Z,15.70
2019-02-12T22:43:28.749Z,18.20
2019-02-12T22:45:59.146Z,16.50
2019-02-12T22:48:30.649Z,21.07
2019-02-12T22:51:01.219Z,16.30
2019-02-12T22:53:31.646Z,16.13
2019-02-12T22:56:02.175Z,18.93
2019-02-12T22:58:32.679Z,17.73
2019-02-12T23:01:09.793Z,18.03
2019-02-12T23:03:41.061Z,15.50
2019-02-12T23:06:11.591Z,19.13
2019-02-12T23:08:42.145Z,16.27
2019-02-12T23:11:12.883Z,19.57
2019-02-12T23:13:43.401Z,15.80
2019-02-12T23:16:14.167Z,20.17
2019-02-12T23:18:44.735Z,15.70
2019-02-12T23:21:15.237Z,18.27
2019-02-12T23:23:45.801Z,20.97
2019-02-12T23:26:16.402Z,19.83
2019-02-12T23:28:46.961Z,16.97
2019-02-12T23:31:17.459Z,19.70
2019-02-12T23:33:48.018Z,15.07
2019-02-12T23:36:18.502Z,16.53
2019-02-12T23:38:49.234Z,16.93
2019-02-12T23:41:19.806Z,15.80
2019-02-12T23:43:50.346Z,17.83
2019-02-12T23:46:22.512Z,15.40
2019-02-12T23:48:53.050Z,18.00
2019-02-12T23:51:23.744Z,16.03
2019-02-12T23:53:54.336Z,17.27
2019-02-12T23:56:25.911Z,14.83
2019-02-12T23:58:57.614Z,17.67
